Time;durP1;ratioP1;P1;durP2;ratioP2;P2;SDS_P1;SDS_P2;PMS_P1;PMS_P2;Temp;Humidity;BMP_temperature;BMP_pressure;BME280_temperature;BME280_humidity;BME280_pressure;Samples;Min_cycle;Max_cycle;Signal;HPM_P1;HPM_P2
2023/01/12 04:00:45;;;;;;;7.60;5.80;;;6.40;99.90;;;;;;5756169;23;20232;-75
2023/01/12 04:03:14;;;;;;;7.53;6.27;;;6.30;99.90;;;;;;4959149;28;20185;-75
2023/01/12 04:05:41;;;;;;;8.67;7.80;;;6.30;99.90;;;;;;4976967;28;20240;-75
2023/01/12 04:08:09;;;;;;;9.67;6.83;;;6.20;99.90;;;;;;4974178;28;20177;-75
2023/01/12 04:10:35;;;;;;;7.80;7.07;;;6.20;99.90;;;;;;4982567;28;20228;-75
2023/01/12 04:13:01;;;;;;;10.70;6.10;;;6.10;99.90;;;;;;4972325;28;20605;-75
2023/01/12 04:15:27;;;;;;;6.60;5.20;;;6.20;99.90;;;;;;5012939;23;20331;-78
2023/01/12 04:17:52;;;;;;;9.20;6.40;;;6.10;99.90;;;;;;4986985;28;20272;-77
2023/01/12 04:20:19;;;;;;;9.33;5.33;;;6.10;99.90;;;;;;4972739;28;20268;-76
2023/01/12 04:22:45;;;;;;;5.80;5.23;;;6.00;99.90;;;;;;4971251;28;20188;-76
2023/01/12 04:25:20;;;;;;;7.63;5.37;;;6.00;99.90;;;;;;4951404;28;20204;-76
2023/01/12 04:27:52;;;;;;;9.67;5.53;;;6.00;99.90;;;;;;4969089;28;20188;-77
2023/01/12 04:30:21;;;;;;;10.27;9.47;;;6.00;99.90;;;;;;4965767;28;20192;-77
2023/01/12 04:32:47;;;;;;;13.47;12.10;;;6.00;99.90;;;;;;4958888;28;20224;-77
2023/01/12 04:35:15;;;;;;;20.93;16.53;;;6.10;99.90;;;;;;4955000;28;20213;-77
2023/01/12 04:37:41;;;;;;;18.00;16.23;;;6.10;99.90;;;;;;4972863;28;20731;-77
2023/01/12 04:40:09;;;;;;;11.80;10.67;;;6.20;99.90;;;;;;4955372;28;20189;-77
2023/01/12 04:45:20;;;;;;;7.93;6.93;;;6.30;99.90;;;;;;4974710;28;20292;-78
2023/01/12 04:47:45;;;;;;;7.57;6.60;;;6.30;99.90;;;;;;4973515;28;20215;-77
2023/01/12 04:50:11;;;;;;;5.43;4.70;;;6.30;99.90;;;;;;4948675;28;20245;-77
2023/01/12 04:52:37;;;;;;;13.80;4.87;;;6.30;99.90;;;;;;4936684;29;20676;-77
2023/01/12 04:55:04;;;;;;;8.23;4.70;;;6.50;99.90;;;;;;4970114;28;20227;-77
2023/01/12 04:57:30;;;;;;;10.50;9.63;;;6.50;99.90;;;;;;4974552;28;20188;-77
2023/01/12 04:59:56;;;;;;;20.40;18.93;;;6.50;99.90;;;;;;4974821;28;20238;-77
2023/01/12 05:02:22;;;;;;;23.87;22.33;;;6.50;99.90;;;;;;4995801;28;20181;-78
2023/01/12 05:04:48;;;;;;;20.10;18.67;;;6.60;99.90;;;;;;4994268;28;20205;-77
2023/01/12 05:07:14;;;;;;;25.47;24.03;;;6.70;99.90;;;;;;4967212;28;20191;-78
2023/01/12 05:12:24;;;;;;;28.30;25.93;;;6.70;99.90;;;;;;4973413;28;20199;-78
2023/01/12 05:14:50;;;;;;;29.37;27.30;;;6.70;99.90;;;;;;4973199;28;20224;-78
2023/01/12 05:17:16;;;;;;;24.90;23.37;;;6.80;99.90;;;;;;4956036;28;20260;-77
2023/01/12 05:19:42;;;;;;;24.80;23.27;;;6.70;99.90;;;;;;4972675;28;20180;-77
2023/01/12 05:22:08;;;;;;;20.37;19.07;;;6.80;99.90;;;;;;4956323;28;20653;-77
2023/01/12 05:24:34;;;;;;;15.20;14.17;;;6.90;99.90;;;;;;4973159;28;20665;-78
2023/01/12 05:27:00;;;;;;;10.33;9.40;;;6.90;99.90;;;;;;4972889;28;20196;-78
2023/01/12 05:29:26;;;;;;;10.47;7.93;;;7.10;99.90;;;;;;4973377;28;20323;-78
2023/01/12 05:31:52;;;;;;;7.40;6.87;;;7.10;99.90;;;;;;4956051;28;20642;-77
2023/01/12 05:34:19;;;;;;;7.57;6.83;;;7.20;99.90;;;;;;4960221;28;20212;-77
2023/01/12 05:36:48;;;;;;;11.67;6.80;;;7.20;99.90;;;;;;4965263;28;20213;-77
2023/01/12 05:39:14;;;;;;;10.77;7.00;;;7.20;99.90;;;;;;4958071;28;20176;-67
2023/01/12 05:43:48;;;;;;;8.20;7.37;;;7.20;99.90;;;;;;4971415;28;20559;-67
2023/01/12 05:44:25;;;;;;;7.63;6.33;;;7.30;99.90;;;;;;4984648;28;20282;-67
2023/01/12 05:46:51;;;;;;;8.13;6.30;;;7.40;99.90;;;;;;4973152;28;20220;-67
2023/01/12 05:49:17;;;;;;;6.77;5.67;;;7.40;99.90;;;;;;4990320;28;20873;-67
2023/01/12 05:51:42;;;;;;;7.00;5.17;;;7.40;99.90;;;;;;4990716;28;20259;-67
2023/01/12 05:54:08;;;;;;;5.70;5.20;;;7.50;99.90;;;;;;4990558;28;20227;-66
2023/01/12 05:56:34;;;;;;;8.43;6.60;;;7.50;99.90;;;;;;4990449;28;20208;-67
2023/01/12 05:59:03;;;;;;;8.43;7.47;;;7.60;99.90;;;;;;4990178;28;20181;-66
2023/01/12 06:01:29;;;;;;;10.20;7.43;;;7.60;99.90;;;;;;4973320;28;20184;-71
2023/01/12 06:03:57;;;;;;;9.73;6.97;;;7.60;99.90;;;;;;4990173;28;20200;-70
2023/01/12 06:06:25;;;;;;;6.63;5.93;;;7.60;99.90;;;;;;4990127;28;20185;-71
2023/01/12 06:08:51;;;;;;;8.77;6.20;;;7.60;99.90;;;;;;4990002;28;20554;-69
2023/01/12 06:14:03;;;;;;;7.87;6.07;;;7.60;99.90;;;;;;4990059;28;20232;-70
2023/01/12 06:16:29;;;;;;;7.80;6.37;;;7.50;99.90;;;;;;4976121;28;20219;-70
2023/01/12 06:18:55;;;;;;;10.30;6.57;;;7.50;99.90;;;;;;4951994;28;20177;-70
2023/01/12 06:21:22;;;;;;;8.90;7.53;;;7.50;99.90;;;;;;4969703;28;20637;-71
2023/01/12 06:23:47;;;;;;;7.40;6.43;;;7.40;99.90;;;;;;4952897;28;20528;-70
2023/01/12 06:26:13;;;;;;;15.63;7.97;;;7.40;99.90;;;;;;4970658;28;20192;-70
2023/01/12 06:28:39;;;;;;;7.20;6.33;;;7.30;99.90;;;;;;4970606;28;20191;-70
2023/01/12 06:31:08;;;;;;;9.20;7.90;;;7.20;99.90;;;;;;4971434;28;20559;-70
2023/01/12 06:33:34;;;;;;;7.70;6.80;;;7.10;99.90;;;;;;4953677;28;20185;-70
2023/01/12 06:36:00;;;;;;;12.87;6.57;;;7.00;99.90;;;;;;4971116;28;20224;-70
2023/01/12 06:38:29;;;;;;;7.43;5.20;;;6.90;99.90;;;;;;4970247;28;20205;-69
2023/01/12 06:40:59;;;;;;;6.37;5.77;;;6.90;99.90;;;;;;4953783;28;20641;-70
2023/01/12 06:43:25;;;;;;;13.17;5.33;;;7.00;99.90;;;;;;4973214;28;20589;-70
2023/01/12 06:45:54;;;;;;;12.37;5.53;;;7.00;99.90;;;;;;4975500;28;20304;-71
2023/01/12 06:48:24;;;;;;;10.20;9.17;;;7.00;99.90;;;;;;4957150;28;20645;-70
2023/01/12 06:51:03;;;;;;;10.40;6.17;;;7.10;99.90;;;;;;4957581;28;20271;-70
2023/01/12 06:53:29;;;;;;;8.80;7.10;;;7.20;99.90;;;;;;4974717;28;20188;-70
2023/01/12 06:55:55;;;;;;;8.93;8.00;;;7.20;99.90;;;;;;4974601;28;20220;-71
2023/01/12 06:58:21;;;;;;;11.63;8.43;;;7.30;99.90;;;;;;4974207;28;20268;-70
2023/01/12 07:00:47;;;;;;;8.53;7.70;;;7.30;99.90;;;;;;4957083;28;20547;-70
2023/01/12 07:03:18;;;;;;;10.47;7.50;;;7.50;99.90;;;;;;4957022;28;20181;-70
2023/01/12 07:05:43;;;;;;;7.47;5.87;;;7.50;99.90;;;;;;4974128;28;20212;-70
2023/01/12 07:08:10;;;;;;;11.67;5.83;;;7.50;99.90;;;;;;4974308;28;20185;-70
2023/01/12 07:10:36;;;;;;;9.53;8.70;;;7.40;99.90;;;;;;4974293;28;20244;-70
2023/01/12 07:13:02;;;;;;;8.03;7.17;;;7.40;99.90;;;;;;4974383;28;20182;-70
2023/01/12 07:15:28;;;;;;;9.50;6.30;;;7.50;99.90;;;;;;4956681;28;20302;-70
2023/01/12 07:17:55;;;;;;;9.00;6.53;;;7.50;99.90;;;;;;4973829;28;20271;-70
2023/01/12 07:20:22;;;;;;;8.87;7.53;;;7.50;99.90;;;;;;4974011;28;20195;-70
2023/01/12 07:22:48;;;;;;;12.63;11.73;;;7.60;99.90;;;;;;4956955;28;20181;-71
2023/01/12 07:25:14;;;;;;;11.07;9.67;;;7.60;99.90;;;;;;4973933;28;20267;-70
2023/01/12 07:27:50;;;;;;;9.73;9.10;;;7.60;99.90;;;;;;4973724;28;20208;-71
2023/01/12 07:30:17;;;;;;;10.20;8.40;;;7.60;99.90;;;;;;4974135;28;20189;-71
2023/01/12 07:32:43;;;;;;;9.20;7.53;;;7.70;99.90;;;;;;4974339;28;20562;-71
2023/01/12 07:35:09;;;;;;;7.00;6.53;;;7.70;99.90;;;;;;4973700;28;20380;-71
2023/01/12 07:37:35;;;;;;;11.40;7.77;;;7.80;99.90;;;;;;4956138;28;20544;-72
2023/01/12 07:40:00;;;;;;;10.30;7.00;;;7.80;99.90;;;;;;4973812;28;20193;-71
2023/01/12 07:42:26;;;;;;;11.30;7.97;;;7.90;99.90;;;;;;4973937;28;20234;-71
2023/01/12 07:44:52;;;;;;;7.23;6.80;;;7.90;99.90;;;;;;4956540;28;20764;-71
2023/01/12 07:47:18;;;;;;;11.67;9.17;;;7.90;99.90;;;;;;4956115;28;20185;-71
2023/01/12 07:49:44;;;;;;;12.33;11.50;;;7.90;99.90;;;;;;4973731;28;20184;-71
2023/01/12 07:52:11;;;;;;;12.47;11.00;;;8.00;99.90;;;;;;4973918;28;20239;-71
2023/01/12 07:54:37;;;;;;;12.97;11.67;;;8.00;99.90;;;;;;4973041;28;20216;-71
2023/01/12 07:57:03;;;;;;;12.77;11.57;;;8.00;99.90;;;;;;4973213;28;20177;-71
2023/01/12 07:59:29;;;;;;;12.77;11.70;;;8.00;99.90;;;;;;4973585;28;20177;-71
2023/01/12 08:01:55;;;;;;;12.00;11.00;;;8.00;99.90;;;;;;4956170;28;20183;-71
2023/01/12 08:04:21;;;;;;;12.90;11.70;;;8.00;99.90;;;;;;4973302;28;20228;-71
2023/01/12 08:06:47;;;;;;;13.37;12.20;;;8.10;99.90;;;;;;4973485;28;20415;-71
2023/01/12 08:09:13;;;;;;;13.33;12.00;;;8.10;99.90;;;;;;4973648;28;20615;-71
2023/01/12 08:11:38;;;;;;;13.23;11.93;;;8.10;99.90;;;;;;4975034;28;20220;-70
2023/01/12 08:14:04;;;;;;;11.33;10.63;;;8.10;99.90;;;;;;4955621;28;20247;-71
2023/01/12 08:16:45;;;;;;;12.77;7.97;;;8.20;99.90;;;;;;4955718;28;20244;-71
2023/01/12 08:19:17;;;;;;;9.03;8.17;;;8.30;99.90;;;;;;4955754;28;20182;-70
2023/01/12 08:21:57;;;;;;;5.03;4.67;;;8.30;99.90;;;;;;4972832;28;20189;-71
2023/01/12 08:24:31;;;;;;;6.40;5.13;;;8.40;99.90;;;;;;4955558;28;20229;-71
2023/01/12 08:27:00;;;;;;;9.17;6.43;;;8.40;99.90;;;;;;4972416;28;20190;-71
2023/01/12 08:29:31;;;;;;;5.87;5.17;;;8.40;99.90;;;;;;4972549;28;20181;-71
2023/01/12 08:32:04;;;;;;;5.87;5.10;;;8.50;99.90;;;;;;4955316;28;20325;-70
2023/01/12 08:34:31;;;;;;;6.10;5.00;;;8.60;99.90;;;;;;4972363;28;20215;-71
2023/01/12 08:37:00;;;;;;;12.90;8.67;;;8.60;99.90;;;;;;4955134;28;20244;-72
2023/01/12 08:39:28;;;;;;;7.97;6.00;;;8.70;99.90;;;;;;4972495;28;20272;-72
2023/01/12 08:41:54;;;;;;;6.43;5.27;;;8.80;99.90;;;;;;4972286;28;20608;-71
2023/01/12 08:44:20;;;;;;;6.03;4.90;;;8.80;99.90;;;;;;4955036;28;20231;-72
2023/01/12 08:46:52;;;;;;;6.33;5.73;;;8.90;99.90;;;;;;4954801;28;20197;-72
2023/01/12 08:49:21;;;;;;;5.83;5.33;;;8.90;99.90;;;;;;4955239;28;20284;-71
2023/01/12 08:51:47;;;;;;;9.00;6.00;;;9.00;99.90;;;;;;4955008;28;20277;-72
2023/01/12 08:54:15;;;;;;;5.93;5.50;;;9.00;99.90;;;;;;4972081;28;20213;-71
2023/01/12 08:56:41;;;;;;;6.07;5.37;;;9.10;99.90;;;;;;4954783;28;20209;-71
2023/01/12 08:59:08;;;;;;;9.50;6.27;;;9.10;99.90;;;;;;4971954;28;20783;-71
2023/01/12 09:01:34;;;;;;;6.90;5.07;;;9.10;99.90;;;;;;4955062;28;20187;-71
2023/01/12 09:04:00;;;;;;;5.30;3.77;;;9.10;99.90;;;;;;4972613;28;20220;-71
2023/01/12 09:06:29;;;;;;;4.70;4.30;;;9.10;99.90;;;;;;4973168;28;20189;-71
2023/01/12 09:08:57;;;;;;;7.57;4.20;;;9.20;99.90;;;;;;4955517;28;20221;-71
2023/01/12 09:11:23;;;;;;;3.80;3.50;;;9.20;99.90;;;;;;4972390;28;20189;-70
2023/01/12 09:13:50;;;;;;;4.80;3.50;;;9.20;99.90;;;;;;4971986;28;20188;-70
2023/01/12 09:16:17;;;;;;;5.73;5.23;;;9.20;99.90;;;;;;4972345;28;20263;-70
2023/01/12 09:18:44;;;;;;;6.07;4.37;;;9.20;99.90;;;;;;4971711;28;20186;-70
2023/01/12 09:21:12;;;;;;;7.47;4.30;;;9.20;99.90;;;;;;4955043;28;20179;-71
2023/01/12 09:23:38;;;;;;;8.00;4.57;;;9.20;99.90;;;;;;4971917;28;20641;-71
2023/01/12 09:26:10;;;;;;;5.07;4.77;;;9.20;99.90;;;;;;4972226;28;20263;-71
2023/01/12 09:28:36;;;;;;;5.33;4.93;;;9.20;99.90;;;;;;4954526;28;20559;-71
2023/01/12 09:31:04;;;;;;;9.73;4.10;;;9.20;99.90;;;;;;4954917;28;20189;-71
2023/01/12 09:33:32;;;;;;;4.30;3.90;;;9.30;99.90;;;;;;4972173;28;20191;-71
2023/01/12 09:36:03;;;;;;;5.17;4.27;;;9.30;99.90;;;;;;4972159;28;20215;-71
2023/01/12 09:38:29;;;;;;;8.20;4.40;;;9.30;99.90;;;;;;4971683;28;20185;-70
2023/01/12 09:40:57;;;;;;;4.83;4.20;;;9.30;99.90;;;;;;4972127;28;20272;-71
2023/01/12 09:46:57;;;;;;;5.63;4.20;;;9.30;99.90;;;;;;4972061;28;20189;-71
2023/01/12 09:49:52;;;;;;;5.20;4.37;;;9.30;99.90;;;;;;4971799;28;20284;-71
2023/01/12 09:52:26;;;;;;;5.03;4.20;;;9.30;99.90;;;;;;4971812;28;20197;-71
2023/01/12 09:54:52;;;;;;;6.93;4.47;;;9.30;99.90;;;;;;4971523;28;20215;-71
2023/01/12 09:57:46;;;;;;;4.80;4.50;;;9.30;99.90;;;;;;4971493;28;20185;-71
2023/01/12 10:00:15;;;;;;;5.37;4.63;;;9.40;99.90;;;;;;4971895;28;20185;-71
2023/01/12 10:03:02;;;;;;;8.03;4.90;;;9.40;99.90;;;;;;4971704;28;20177;-71
2023/01/12 10:05:46;;;;;;;5.13;4.73;;;9.50;99.90;;;;;;4971536;28;20212;-71
2023/01/12 10:08:16;;;;;;;5.30;4.27;;;9.60;99.90;;;;;;4954072;28;20186;-71
2023/01/12 10:11:00;;;;;;;5.23;3.83;;;9.70;99.90;;;;;;4954704;28;20188;-71
2023/01/12 10:13:51;;;;;;;5.23;4.10;;;9.80;99.90;;;;;;4972021;28;20181;-71
2023/01/12 10:16:50;;;;;;;6.40;5.03;;;9.90;99.90;;;;;;4958706;23;20320;-75
2023/01/12 10:19:28;;;;;;;5.40;4.20;;;9.90;99.90;;;;;;4957582;28;20281;-75
2023/01/12 10:21:56;;;;;;;5.90;3.90;;;9.90;99.90;;;;;;4940824;29;20240;-75
2023/01/12 10:24:24;;;;;;;6.60;4.17;;;9.90;99.90;;;;;;4940728;29;20189;-74
2023/01/12 10:27:00;;;;;;;6.27;4.20;;;9.90;99.90;;;;;;4957854;29;20186;-75
2023/01/12 10:29:27;;;;;;;6.73;4.60;;;10.00;99.90;;;;;;4958439;29;20674;-75
2023/01/12 10:31:53;;;;;;;5.03;4.20;;;10.10;99.90;;;;;;4958142;28;20716;-75
2023/01/12 10:34:19;;;;;;;8.60;5.33;;;10.10;99.90;;;;;;4957886;29;20185;-74
2023/01/12 10:36:48;;;;;;;7.13;6.50;;;10.30;99.90;;;;;;4957504;29;20216;-75
2023/01/12 10:39:30;;;;;;;8.33;7.77;;;10.40;99.90;;;;;;4957021;29;20691;-75
2023/01/12 10:43:17;;;;;;;7.77;7.27;;;10.40;99.90;;;;;;4957196;29;20680;-75
2023/01/12 10:45:17;;;;;;;12.07;10.97;;;10.40;99.90;;;;;;4956284;28;20236;-75
2023/01/12 10:47:44;;;;;;;9.50;8.77;;;10.50;99.90;;;;;;4939737;29;20339;-75
2023/01/12 10:50:28;;;;;;;11.27;10.40;;;10.70;99.90;;;;;;4941842;29;20694;-75
2023/01/12 10:53:11;;;;;;;11.07;10.30;;;11.00;99.90;;;;;;4943182;29;20188;-75
2023/01/12 10:55:39;;;;;;;10.37;9.43;;;11.20;99.90;;;;;;4957582;29;20217;-75
2023/01/12 10:58:20;;;;;;;8.10;7.37;;;11.30;99.90;;;;;;4956693;29;20182;-75
2023/01/12 11:00:48;;;;;;;6.20;5.37;;;11.40;99.90;;;;;;4940218;29;20188;-75
2023/01/12 11:03:36;;;;;;;7.03;5.73;;;11.30;99.90;;;;;;4957704;28;20276;-75
2023/01/12 11:06:22;;;;;;;11.37;5.80;;;11.30;99.90;;;;;;4940955;29;20252;-75
2023/01/12 11:08:48;;;;;;;8.40;5.03;;;11.10;99.90;;;;;;4939198;29;20662;-75
2023/01/12 11:11:28;;;;;;;4.50;4.00;;;11.00;99.90;;;;;;4939152;29;20197;-75
2023/01/12 11:13:57;;;;;;;4.83;4.43;;;10.70;99.90;;;;;;4956559;29;20213;-75
2023/01/12 11:16:30;;;;;;;5.60;5.10;;;10.60;99.90;;;;;;4939204;29;20225;-75
2023/01/12 11:19:12;;;;;;;5.33;4.93;;;10.40;99.90;;;;;;4956205;29;20241;-75
2023/01/12 11:21:41;;;;;;;9.27;8.57;;;10.40;99.90;;;;;;4939616;29;20178;-75
2023/01/12 11:24:22;;;;;;;8.43;7.70;;;10.40;99.90;;;;;;4956791;29;20184;-75
2023/01/12 11:27:00;;;;;;;7.53;6.97;;;10.40;99.90;;;;;;4939379;29;20284;-74
2023/01/12 11:29:42;;;;;;;7.80;7.20;;;10.40;99.90;;;;;;4956813;28;20423;-75
2023/01/12 11:32:17;;;;;;;9.50;8.87;;;10.40;99.90;;;;;;4959606;29;20186;-73
2023/01/12 11:34:56;;;;;;;9.93;9.23;;;10.40;99.90;;;;;;4958078;29;20205;-75
2023/01/12 11:37:22;;;;;;;8.63;8.13;;;10.50;99.90;;;;;;4958065;29;20240;-75
2023/01/12 11:40:03;;;;;;;9.00;8.40;;;10.50;99.90;;;;;;4939932;29;20609;-75
2023/01/12 11:45:24;;;;;;;9.77;9.17;;;10.40;99.90;;;;;;4956059;29;20297;-75
2023/01/12 11:47:54;;;;;;;8.67;8.07;;;10.30;99.90;;;;;;4939060;29;20193;-75
2023/01/12 11:50:41;;;;;;;10.37;9.43;;;10.30;99.90;;;;;;4956287;29;20196;-73
2023/01/12 11:53:19;;;;;;;9.60;8.73;;;10.40;99.90;;;;;;4939242;29;20181;-73
2023/01/12 11:55:47;;;;;;;9.57;8.67;;;10.50;99.90;;;;;;4938806;29;20216;-74
2023/01/12 11:58:32;;;;;;;8.80;8.40;;;10.60;99.90;;;;;;4938939;29;20178;-72
2023/01/12 12:01:14;;;;;;;4.63;4.43;;;10.80;99.90;;;;;;4939070;29;20532;-73
2023/01/12 12:03:47;;;;;;;4.17;3.77;;;10.90;99.90;;;;;;4938841;29;20256;-73
2023/01/12 12:06:43;;;;;;;4.37;3.97;;;11.00;99.90;;;;;;4940396;29;20201;-72
2023/01/12 12:09:14;;;;;;;4.10;3.90;;;11.10;99.90;;;;;;4958612;29;20239;-73
2023/01/12 12:11:54;;;;;;;4.50;4.27;;;11.30;99.90;;;;;;4958215;29;20190;-73
2023/01/12 12:14:27;;;;;;;3.50;3.40;;;11.60;99.90;;;;;;4958073;29;20248;-72
2023/01/12 12:17:02;;;;;;;3.97;3.67;;;11.80;99.90;;;;;;4957279;29;20680;-74
2023/01/12 12:19:39;;;;;;;3.93;3.63;;;11.50;99.90;;;;;;4939459;29;20185;-73
2023/01/12 12:22:29;;;;;;;4.20;3.77;;;11.40;99.90;;;;;;4956502;29;20200;-74
2023/01/12 12:25:11;;;;;;;3.90;3.60;;;11.30;99.90;;;;;;4940044;29;20208;-73
2023/01/12 12:27:44;;;;;;;4.40;4.20;;;11.30;99.90;;;;;;4938146;29;20196;-73
2023/01/12 12:30:40;;;;;;;5.50;5.00;;;11.30;99.90;;;;;;4955939;29;20673;-73
2023/01/12 12:33:18;;;;;;;4.50;4.13;;;11.30;99.90;;;;;;4955236;29;20612;-73
2023/01/12 12:36:00;;;;;;;3.93;3.83;;;11.40;99.90;;;;;;4955540;28;20211;-74
2023/01/12 12:38:57;;;;;;;5.00;4.10;;;11.40;99.90;;;;;;4955384;29;20182;-74
2023/01/12 12:48:00;;;;;;;3.40;3.13;;;11.70;99.90;;;;;;4937035;29;20561;-74
2023/01/12 12:50:29;;;;;;;5.77;5.30;;;11.90;99.90;;;;;;4938224;29;20332;-74
2023/01/12 12:53:12;;;;;;;5.67;5.37;;;12.00;99.90;;;;;;4938039;29;20235;-74
2023/01/12 12:55:38;;;;;;;4.50;4.30;;;12.00;99.90;;;;;;4938163;29;20243;-74
2023/01/12 12:58:26;;;;;;;5.70;5.30;;;12.00;99.90;;;;;;4938182;29;20256;-74
2023/01/12 13:00:53;;;;;;;9.70;9.20;;;12.10;99.90;;;;;;4939581;29;20673;-74
2023/01/12 13:03:38;;;;;;;9.20;8.77;;;12.20;99.90;;;;;;4955238;29;20302;-74
2023/01/12 13:06:22;;;;;;;8.67;8.20;;;12.10;99.90;;;;;;4937538;29;20712;-74
2023/01/12 13:08:50;;;;;;;8.43;8.07;;;11.80;99.90;;;;;;4937500;29;20212;-74
2023/01/12 13:11:17;;;;;;;5.33;5.13;;;11.60;99.90;;;;;;4955474;28;20182;-74
2023/01/12 13:14:17;;;;;;;4.70;4.13;;;11.50;99.90;;;;;;4965983;28;20264;-73
2023/01/12 13:16:50;;;;;;;5.40;5.10;;;11.70;99.90;;;;;;4939258;29;20244;-73
2023/01/12 13:19:38;;;;;;;5.17;4.87;;;11.60;99.90;;;;;;4955708;29;20221;-73
2023/01/12 13:22:28;;;;;;;4.60;4.27;;;11.60;99.90;;;;;;4938660;29;20653;-73
2023/01/12 13:24:56;;;;;;;5.10;4.70;;;11.60;99.90;;;;;;4938634;29;20703;-73
2023/01/12 13:27:59;;;;;;;3.90;3.67;;;11.60;99.90;;;;;;4937745;29;20192;-73
2023/01/12 13:30:28;;;;;;;3.90;3.53;;;11.50;99.90;;;;;;4955202;29;20732;-73
2023/01/12 13:33:14;;;;;;;3.67;3.50;;;11.50;99.90;;;;;;4955459;29;20655;-73
2023/01/12 13:35:42;;;;;;;3.40;3.30;;;11.40;99.90;;;;;;4955873;29;20377;-74
2023/01/12 13:38:23;;;;;;;4.00;3.90;;;11.30;99.90;;;;;;4937275;29;20182;-74
2023/01/12 13:40:49;;;;;;;4.83;4.63;;;11.20;99.90;;;;;;4954521;29;20653;-74
2023/01/12 13:43:29;;;;;;;4.43;4.07;;;11.20;99.90;;;;;;4954530;29;20192;-75
2023/01/12 13:45:59;;;;;;;5.70;5.40;;;11.20;99.90;;;;;;4954593;28;20697;-74
2023/01/12 13:48:28;;;;;;;5.20;4.90;;;11.20;99.90;;;;;;4954565;29;20192;-74
2023/01/12 13:51:30;;;;;;;5.20;4.93;;;11.20;99.90;;;;;;4954741;29;20324;-75
2023/01/12 13:54:03;;;;;;;4.17;4.07;;;11.00;99.90;;;;;;4944474;29;20197;-74
2023/01/12 13:56:29;;;;;;;4.40;4.07;;;11.00;99.90;;;;;;4958039;29;20622;-74
2023/01/12 13:59:06;;;;;;;4.87;4.67;;;11.10;99.90;;;;;;4958499;28;20268;-74
2023/01/12 14:01:39;;;;;;;4.17;4.07;;;11.00;99.90;;;;;;4959275;29;20318;-74
2023/01/12 14:04:17;;;;;;;4.23;4.13;;;11.00;99.90;;;;;;4957484;29;20207;-74
2023/01/12 14:06:54;;;;;;;4.50;3.90;;;10.90;99.90;;;;;;4940564;29;20186;-74
2023/01/12 14:09:32;;;;;;;8.43;7.53;;;10.80;99.90;;;;;;4940626;29;20193;-75
2023/01/12 14:11:58;;;;;;;8.87;7.87;;;10.80;99.90;;;;;;4941219;29;20656;-74
2023/01/12 14:17:48;;;;;;;8.07;7.43;;;10.90;99.90;;;;;;4957162;29;20185;-74
2023/01/12 14:20:16;;;;;;;5.97;5.67;;;10.80;99.90;;;;;;4958551;29;20620;-74
2023/01/12 14:22:44;;;;;;;7.17;6.77;;;10.80;99.90;;;;;;4958075;28;20237;-75
2023/01/12 14:25:24;;;;;;;6.17;5.87;;;10.80;99.90;;;;;;4956936;29;20651;-74
2023/01/12 14:27:53;;;;;;;6.40;5.93;;;10.70;99.90;;;;;;4956954;28;20207;-75
2023/01/12 14:30:20;;;;;;;7.63;7.23;;;10.70;99.90;;;;;;4957611;28;20186;-74
2023/01/12 14:32:48;;;;;;;7.87;7.33;;;10.70;99.90;;;;;;4957691;28;20646;-74
2023/01/12 14:35:17;;;;;;;13.20;9.70;;;10.70;99.90;;;;;;4957163;29;20268;-74
2023/01/12 14:37:50;;;;;;;7.30;6.90;;;10.80;99.90;;;;;;4956939;29;20192;-74
2023/01/12 14:40:30;;;;;;;6.50;6.10;;;10.70;99.90;;;;;;4956926;29;20269;-74
2023/01/12 14:48:58;;;;;;;7.80;7.50;;;10.70;99.90;;;;;;4926532;29;20272;-74
2023/01/12 14:51:36;;;;;;;8.33;8.00;;;10.70;99.90;;;;;;4971470;29;20618;-73
2023/01/12 14:54:05;;;;;;;8.40;8.00;;;10.70;99.90;;;;;;4963018;29;20182;-73
2023/01/12 14:56:40;;;;;;;7.43;6.93;;;10.70;99.90;;;;;;4944059;29;20218;-73
2023/01/12 14:59:28;;;;;;;9.57;9.17;;;10.70;99.90;;;;;;4967536;29;20182;-73
2023/01/12 15:02:12;;;;;;;11.00;10.50;;;10.60;99.90;;;;;;4971472;29;20193;-74
2023/01/12 15:05:18;;;;;;;10.83;10.33;;;10.50;99.90;;;;;;4957532;28;20206;-74
2023/01/12 15:08:02;;;;;;;10.37;9.97;;;10.50;99.90;;;;;;4953355;29;20220;-74
2023/01/12 15:10:33;;;;;;;8.93;8.43;;;10.40;99.90;;;;;;4939023;29;20579;-74
2023/01/12 15:13:24;;;;;;;8.37;8.03;;;10.40;99.90;;;;;;4956884;29;20186;-74
2023/01/12 15:27:07;;;;;;;9.03;8.67;;;10.40;99.90;;;;;;4956348;28;20186;-74
2023/01/12 15:29:33;;;;;;;7.20;6.90;;;10.40;99.90;;;;;;4939552;29;20194;-74
2023/01/12 15:31:59;;;;;;;7.33;7.03;;;10.40;99.90;;;;;;4957390;29;20185;-74
2023/01/12 15:34:25;;;;;;;9.20;8.60;;;10.50;99.90;;;;;;4939811;29;20181;-74
2023/01/12 15:36:51;;;;;;;8.40;8.00;;;10.40;99.90;;;;;;4956175;29;20400;-74
2023/01/12 15:39:16;;;;;;;7.17;6.63;;;10.50;99.90;;;;;;4956454;29;20662;-74
2023/01/12 15:44:27;;;;;;;7.20;6.90;;;10.40;99.90;;;;;;4955583;29;20729;-74
2023/01/12 15:46:53;;;;;;;7.30;6.80;;;10.40;99.90;;;;;;4955862;28;20193;-74
2023/01/12 15:49:20;;;;;;;7.53;7.23;;;10.40;99.90;;;;;;4955961;29;20567;-74
2023/01/12 15:51:50;;;;;;;7.87;7.27;;;10.40;99.90;;;;;;4938679;29;20638;-74
2023/01/12 15:54:18;;;;;;;5.90;5.60;;;10.40;99.90;;;;;;4955921;29;20193;-74
2023/01/12 15:56:44;;;;;;;7.27;6.87;;;10.40;99.90;;;;;;4938443;29;20709;-74
2023/01/12 15:59:10;;;;;;;7.20;6.70;;;10.30;99.90;;;;;;4956621;29;20186;-74
2023/01/12 16:01:47;;;;;;;8.50;7.77;;;10.30;99.90;;;;;;4956191;28;20178;-73
2023/01/12 16:04:15;;;;;;;6.13;5.73;;;10.40;99.90;;;;;;4955800;29;20185;-73
2023/01/12 16:06:41;;;;;;;5.83;5.50;;;10.30;99.90;;;;;;4939738;29;20197;-73
2023/01/12 16:09:07;;;;;;;5.97;5.67;;;10.30;99.90;;;;;;4942802;29;20332;-73
2023/01/12 16:11:32;;;;;;;5.70;5.40;;;10.30;99.90;;;;;;4940560;29;20186;-74
2023/01/12 16:13:58;;;;;;;6.83;6.23;;;10.30;99.90;;;;;;4956670;29;20205;-75
2023/01/12 16:16:25;;;;;;;5.33;5.03;;;10.30;99.90;;;;;;4973065;23;20335;-71
2023/01/12 16:18:51;;;;;;;5.33;4.87;;;10.30;99.90;;;;;;4935844;29;20688;-71
2023/01/12 16:21:21;;;;;;;5.03;4.57;;;10.20;99.90;;;;;;4953799;29;20185;-71
2023/01/12 16:23:47;;;;;;;4.80;4.60;;;10.20;99.90;;;;;;4953284;29;20237;-70
2023/01/12 16:26:12;;;;;;;5.70;4.90;;;10.20;99.90;;;;;;4953033;28;20574;-71
2023/01/12 16:28:38;;;;;;;7.40;6.93;;;10.20;99.90;;;;;;4952872;29;20717;-71
2023/01/12 16:31:06;;;;;;;5.40;5.07;;;10.30;99.90;;;;;;4953279;28;20539;-71
2023/01/12 16:33:31;;;;;;;4.97;4.67;;;10.30;99.90;;;;;;4952970;29;20277;-71
2023/01/12 16:36:00;;;;;;;5.83;4.80;;;10.30;99.90;;;;;;4952863;29;20308;-71
2023/01/12 16:38:26;;;;;;;5.13;4.93;;;10.20;99.90;;;;;;4935564;29;20306;-71
2023/01/12 16:40:53;;;;;;;5.27;4.97;;;10.30;99.90;;;;;;4936142;29;20182;-70
2023/01/12 16:43:21;;;;;;;5.37;5.17;;;10.30;99.90;;;;;;4952941;29;20232;-71
2023/01/12 16:45:47;;;;;;;5.30;5.10;;;10.30;99.90;;;;;;4935569;29;20261;-70
2023/01/12 16:48:12;;;;;;;6.47;6.17;;;10.30;99.90;;;;;;4952481;29;20189;-70
2023/01/12 16:50:39;;;;;;;5.43;5.03;;;10.30;99.90;;;;;;4953360;29;20521;-72
2023/01/12 16:53:06;;;;;;;5.77;5.27;;;10.30;99.90;;;;;;4935600;29;20463;-71
2023/01/12 16:55:33;;;;;;;6.33;5.10;;;10.30;99.90;;;;;;4935472;29;20224;-71
2023/01/12 16:57:59;;;;;;;6.10;5.63;;;10.20;99.90;;;;;;4935101;29;20217;-71
2023/01/12 17:00:27;;;;;;;5.33;5.03;;;10.20;99.90;;;;;;4953089;29;20588;-71
2023/01/12 17:02:54;;;;;;;8.97;7.30;;;10.20;99.90;;;;;;4935534;29;20285;-71
2023/01/12 17:05:20;;;;;;;6.77;6.47;;;10.30;99.90;;;;;;4953008;29;20197;-70
2023/01/12 17:07:47;;;;;;;7.47;6.93;;;10.30;99.90;;;;;;4951407;29;20182;-70
2023/01/12 17:10:14;;;;;;;6.33;6.03;;;10.30;99.90;;;;;;4952095;28;20186;-68
2023/01/12 17:12:40;;;;;;;5.27;5.07;;;10.30;99.90;;;;;;4953308;28;20186;-80
2023/01/12 17:15:06;;;;;;;6.60;6.30;;;10.40;99.90;;;;;;4954194;29;20213;-77
2023/01/12 17:17:33;;;;;;;11.03;9.80;;;10.40;99.90;;;;;;4948549;29;20551;-78
2023/01/12 17:19:59;;;;;;;13.50;12.17;;;10.30;99.90;;;;;;4941193;29;20181;-80
2023/01/12 17:22:25;;;;;;;13.10;11.90;;;10.40;99.90;;;;;;4941722;29;20580;-79
2023/01/12 17:24:51;;;;;;;7.33;7.03;;;10.40;99.90;;;;;;4944356;29;20194;-78
2023/01/12 17:27:18;;;;;;;8.77;8.17;;;10.40;99.90;;;;;;4947811;29;20221;-77
2023/01/12 17:29:47;;;;;;;8.63;8.13;;;10.30;99.90;;;;;;4946370;29;20185;-79
2023/01/12 17:32:14;;;;;;;6.80;6.50;;;10.30;99.90;;;;;;4946438;29;20249;-77
2023/01/12 17:34:41;;;;;;;7.20;6.83;;;10.30;99.90;;;;;;4959691;28;20185;-80
2023/01/12 17:37:09;;;;;;;7.50;7.20;;;10.30;99.90;;;;;;4968959;28;20265;-79
2023/01/12 17:39:36;;;;;;;7.67;7.30;;;10.30;99.90;;;;;;4961361;29;20210;-79
2023/01/12 17:44:46;;;;;;;9.13;8.37;;;10.30;99.90;;;;;;4960991;29;20213;-80
2023/01/12 17:47:11;;;;;;;6.67;6.20;;;10.30;99.90;;;;;;4957388;28;20206;-79
2023/01/12 17:49:37;;;;;;;7.23;6.63;;;10.30;99.90;;;;;;4959183;29;20216;-81
2023/01/12 17:52:03;;;;;;;7.20;6.80;;;10.30;99.90;;;;;;4946264;28;20182;-78
2023/01/12 17:54:29;;;;;;;7.57;7.00;;;10.20;99.90;;;;;;4939288;29;20200;-78